LaGrange, GA (30240)

9:31 PM EST on January 22, 2017 (GMT -0500)
Lagrange-Callaway | | Change Station
Active Advisory: Wind Advisory Active Notice: Public Information Statement

Elev 692 ft 33.01 °N, 85.07 °W | Updated 16 minutes ago

Mostly Cloudy
Mostly Cloudy
52 °F
Feels Like 52 °F
N
5
Wind Variable Wind from WSW

Today
High -- | Low -- °F
--% Chance of Precip.
Yesterday
High -- | Low -- °F
Precip. -- in
Pressure 29.33 in
Visibility 10.0 miles
Clouds Mostly Cloudy 2100 ft
Mostly Cloudy 4200 ft
Dew Point 51 °F
Humidity 94%
Rainfall 0.00 in
Snow Depth Not available.
7:41 AM 6:03 PM
Waning Crescent, 22% visible
METAR KLGC 230215Z AUTO 24004KT 10SM BKN021 BKN042 11/11 A2933 RMK AO2 T01140105
Pressure 29.33 in
Visibility 10.0 miles
Clouds Mostly Cloudy 2100 ft
Mostly Cloudy 4200 ft
Dew Point 51 °F
Humidity 94%
Rainfall 0.00 in
Snow Depth Not available.
7:41 AM 6:03 PM
Waning Crescent, 22% visible
METAR KLGC 230215Z AUTO 24004KT 10SM BKN021 BKN042 11/11 A2933 RMK AO2 T01140105

Get Your Daily Forecast Email!

Thanks for signing up!

Be on the lookout for a verification email in your inbox.

You'll start receiving the daily forecast at 8 AM.

×

10-Day Weather Forecast

Almanac

Astronomy

Jan. 22, 2017 Rise Set
Actual Time
Civil Twilight
Nautical Twilight
Astronomical Twilight
Moon
Length of Visible Light
Length of Day
Tomorrow will be .
, % of the Moon is Illuminated

Today's Extremes

State Highs State Lows

Community

WunderPhotos

Upload Photos

1,962,540 photos uploaded!

WunderBlog® & News

Nearby

Air Quality

  Air Quality AQ Index Pollutant
Not available.

Snow Depth

Station Depth Elevation

Earthquake Activity

City Distance Mag. Time & Date
Minimum magnitude displayed is 2.5.

Coastal Water Temperatures

Place Temperature

Stations

Nearby Weather Stations

Station Location Temp. Windchill Dew Point Humidity Wind Precip. Elev Updated Type
                   

Watches & Warnings

Wind Advisory
Issued: 5:44 PM EST Jan. 22, 2017 – National Weather Service

... Wind Advisory remains in effect from 1 am to 7 PM EST Monday...

* locations... north and central Georgia

* winds... 20 to 30 mph with gusts to 40 mph. Winds will be
southwest Monday morning... shifting to the northwest by Monday
afternoon.

* Timing... winds will be gusty this evening near any
thunderstorms. Behind the thunderstorms and a cold front... winds
will pick up. The highest winds are expected between 1 am and
7pm Monday... although some winds may remain gusty into Monday
night... particularly in the north Georgia mountains.

* Impacts... these winds may break tree branches and down weaker
trees... particularly those in saturated soils due to recent
heavy rainfall. Unsecured outdoor items may be blown around.

Precautionary/preparedness actions...

A Wind Advisory means that winds of at least 20 mph or wind gusts
of at least 35 mph mph are expected. Winds this strong can make
driving difficult... especially for high profile vehicles. Use
extra caution.